createdAt,value
2023-03-02T00:01:29.692Z,101775.00
2023-03-02T00:03:59.631Z,101794.00
2023-03-02T00:06:31.049Z,101789.00
2023-03-02T00:09:06.350Z,101794.00
2023-03-02T00:11:37.491Z,101809.00
2023-03-02T00:14:05.515Z,101784.00
2023-03-02T00:16:33.669Z,101785.00
2023-03-02T00:19:01.805Z,101817.00
2023-03-02T00:21:31.850Z,101770.00
2023-03-02T00:24:01.906Z,101789.00
2023-03-02T00:26:30.137Z,101774.00
2023-03-02T00:28:59.972Z,101756.00
2023-03-02T00:31:28.001Z,101799.00
2023-03-02T00:33:56.069Z,101823.00
2023-03-02T00:36:25.074Z,101811.00
2023-03-02T00:41:54.592Z,101768.00
2023-03-02T00:44:22.431Z,101802.00
2023-03-02T00:46:50.396Z,101798.00
2023-03-02T00:49:18.313Z,101795.00
2023-03-02T00:51:46.216Z,101787.00
2023-03-02T00:54:15.898Z,101776.00
2023-03-02T00:56:43.990Z,101774.00
2023-03-02T00:59:26.374Z,101770.00
2023-03-02T01:01:58.225Z,101794.00
2023-03-02T01:04:29.769Z,101795.00
2023-03-02T01:06:57.803Z,101800.00
2023-03-02T01:09:27.713Z,101772.00
2023-03-02T01:11:55.879Z,101791.00
2023-03-02T01:14:23.879Z,101778.00
2023-03-02T01:16:52.126Z,101779.00
2023-03-02T01:19:20.070Z,101796.00
2023-03-02T01:21:48.040Z,101776.00
2023-03-02T01:24:15.971Z,101807.00
2023-03-02T01:26:45.287Z,101795.00
2023-03-02T01:29:14.133Z,101791.00
2023-03-02T01:31:42.140Z,101786.00
2023-03-02T01:34:10.116Z,101767.00
2023-03-02T01:36:38.002Z,101787.00
2023-03-02T01:39:05.973Z,101783.00
2023-03-02T01:41:43.346Z,101768.00
2023-03-02T01:44:41.727Z,101767.00
2023-03-02T01:47:18.714Z,101795.00
2023-03-02T01:49:51.059Z,101769.00
2023-03-02T01:52:19.290Z,101785.00
2023-03-02T01:54:50.141Z,101717.00
2023-03-02T01:57:22.421Z,101776.00
2023-03-02T01:59:55.790Z,101733.00
2023-03-02T02:02:24.489Z,101739.00
2023-03-02T02:04:54.381Z,101740.00
2023-03-02T02:07:22.269Z,101760.00
2023-03-02T02:09:54.565Z,101767.00
2023-03-02T02:12:24.575Z,101749.00
2023-03-02T02:14:55.102Z,101750.00
2023-03-02T02:17:23.394Z,101735.00
2023-03-02T02:20:00.465Z,101751.00
2023-03-02T02:22:36.073Z,101761.00
2023-03-02T02:25:12.863Z,101718.00
2023-03-02T02:27:42.167Z,101744.00
2023-03-02T02:30:14.375Z,101751.00
2023-03-02T02:32:44.465Z,101739.00
2023-03-02T02:35:16.372Z,101730.00
2023-03-02T02:37:47.459Z,101763.00
2023-03-02T02:40:21.925Z,101735.00
2023-03-02T02:43:09.697Z,101764.00
2023-03-02T02:45:37.766Z,101757.00
2023-03-02T02:48:06.894Z,101765.00
2023-03-02T02:50:38.148Z,101715.00
2023-03-02T02:53:11.157Z,101743.00
2023-03-02T02:55:40.488Z,101751.00
2023-03-02T02:58:24.846Z,101762.00
2023-03-02T03:00:57.332Z,101767.00
2023-03-02T03:03:32.090Z,101772.00
2023-03-02T03:06:01.889Z,101738.00
2023-03-02T03:09:01.210Z,101755.00
2023-03-02T03:11:31.682Z,101750.00
2023-03-02T03:14:08.646Z,101757.00
2023-03-02T03:16:38.265Z,101750.00
2023-03-02T03:19:14.434Z,101735.00
2023-03-02T03:21:42.275Z,101737.00
2023-03-02T03:24:10.294Z,101740.00
2023-03-02T03:26:38.225Z,101740.00
2023-03-02T03:29:08.097Z,101730.00
2023-03-02T03:31:36.775Z,101743.00
2023-03-02T03:34:04.836Z,101745.00
2023-03-02T03:36:33.935Z,101712.00
2023-03-02T03:39:04.064Z,101759.00
2023-03-02T03:41:31.998Z,101721.00
2023-03-02T03:43:59.809Z,101742.00
2023-03-02T03:46:29.985Z,101710.00
2023-03-02T03:48:58.401Z,101759.00
2023-03-02T03:51:26.660Z,101761.00
2023-03-02T03:54:00.818Z,101776.00
2023-03-02T03:56:29.049Z,101723.00
2023-03-02T03:59:06.819Z,101769.00
2023-03-02T04:01:37.537Z,101745.00
2023-03-02T04:04:07.092Z,101758.00
2023-03-02T04:06:35.201Z,101749.00
2023-03-02T04:09:05.156Z,101771.00
2023-03-02T04:11:34.119Z,101774.00
2023-03-02T04:14:02.059Z,101761.00
2023-03-02T04:16:30.496Z,101758.00
2023-03-02T04:19:00.881Z,101769.00
2023-03-02T04:21:29.363Z,101775.00
2023-03-02T04:23:57.653Z,101755.00
2023-03-02T04:26:26.903Z,101756.00
2023-03-02T04:28:54.916Z,101758.00
2023-03-02T04:31:22.810Z,101761.00
2023-03-02T04:33:50.811Z,101767.00
2023-03-02T04:36:20.780Z,101763.00
2023-03-02T04:38:49.202Z,101758.00
2023-03-02T04:41:18.009Z,101782.00
2023-03-02T04:43:46.347Z,101768.00
2023-03-02T04:46:25.350Z,101763.00
2023-03-02T04:48:53.874Z,101769.00
2023-03-02T04:51:27.238Z,101761.00
2023-03-02T04:53:58.374Z,101767.00
2023-03-02T04:56:26.273Z,101761.00
2023-03-02T04:58:54.517Z,101772.00
2023-03-02T05:01:23.120Z,101757.00
2023-03-02T05:03:51.288Z,101740.00
2023-03-02T05:06:19.714Z,101749.00
2023-03-02T05:08:49.367Z,101734.00
2023-03-02T05:11:22.621Z,101742.00
2023-03-02T05:13:50.987Z,101734.00
2023-03-02T05:16:20.014Z,101708.00
2023-03-02T05:18:48.613Z,101724.00
2023-03-02T05:21:17.671Z,101738.00
2023-03-02T05:23:50.102Z,101731.00
2023-03-02T05:26:18.556Z,101711.00
2023-03-02T05:28:47.419Z,101750.00
2023-03-02T05:31:20.415Z,101708.00
2023-03-02T05:33:48.629Z,101745.00
2023-03-02T05:36:19.288Z,101749.00
2023-03-02T05:38:49.710Z,101753.00
2023-03-02T05:41:17.984Z,101743.00
2023-03-02T05:43:46.062Z,101770.00
2023-03-02T05:46:14.002Z,101749.00
2023-03-02T05:48:42.372Z,101736.00
2023-03-02T05:51:13.675Z,101760.00
2023-03-02T05:53:42.740Z,101739.00
2023-03-02T05:56:12.735Z,101752.00
2023-03-02T05:58:41.478Z,101723.00
2023-03-02T06:01:12.645Z,101714.00
2023-03-02T06:03:43.107Z,101692.00
2023-03-02T06:06:14.330Z,101729.00
2023-03-02T06:08:43.333Z,101759.00
2023-03-02T06:11:13.241Z,101774.00
2023-03-02T06:13:41.256Z,101751.00
2023-03-02T06:16:09.856Z,101759.00
2023-03-02T06:18:42.951Z,101776.00
2023-03-02T06:21:11.091Z,101776.00
2023-03-02T06:23:39.192Z,101785.00
2023-03-02T06:26:12.617Z,101795.00
2023-03-02T06:28:53.128Z,101803.00
2023-03-02T06:31:21.996Z,101751.00
2023-03-02T06:33:50.477Z,101774.00
2023-03-02T06:36:18.508Z,101777.00
2023-03-02T06:38:46.600Z,101804.00
2023-03-02T06:41:15.978Z,101779.00
2023-03-02T06:43:44.525Z,101742.00
2023-03-02T06:46:13.039Z,101788.00
2023-03-02T06:48:40.895Z,101773.00
2023-03-02T06:51:10.501Z,101802.00
2023-03-02T06:53:38.386Z,101740.00
2023-03-02T06:56:07.394Z,101773.00
2023-03-02T06:58:36.974Z,101756.00
2023-03-02T07:01:05.202Z,101791.00
2023-03-02T07:03:33.594Z,101756.00
2023-03-02T07:06:01.707Z,101789.00
2023-03-02T07:08:30.591Z,101791.00
2023-03-02T07:10:58.649Z,101796.00
2023-03-02T07:13:26.873Z,101744.00
2023-03-02T07:15:56.771Z,101767.00
2023-03-02T07:18:24.752Z,101784.00
2023-03-02T07:20:52.831Z,101717.00
2023-03-02T07:23:21.515Z,101739.00
2023-03-02T07:25:49.483Z,101707.00
2023-03-02T07:28:17.667Z,101766.00
2023-03-02T07:30:45.697Z,101709.00
2023-03-02T07:33:15.211Z,101768.00
2023-03-02T07:35:43.365Z,101766.00
2023-03-02T07:38:11.377Z,101735.00
2023-03-02T07:40:42.033Z,101763.00
2023-03-02T07:43:10.425Z,101768.00
2023-03-02T07:45:38.775Z,101725.00
2023-03-02T07:48:07.382Z,101716.00
2023-03-02T07:50:37.148Z,101771.00
2023-03-02T07:53:05.705Z,101784.00
2023-03-02T07:55:34.176Z,101772.00
2023-03-02T07:58:02.311Z,101773.00
2023-03-02T08:00:30.259Z,101744.00
2023-03-02T08:02:58.897Z,101781.00
2023-03-02T08:05:27.512Z,101738.00
2023-03-02T08:07:57.023Z,101728.00
2023-03-02T08:10:25.160Z,101763.00
2023-03-02T08:12:54.037Z,101781.00
2023-03-02T08:15:22.222Z,101753.00
2023-03-02T08:17:50.588Z,101736.00
2023-03-02T08:20:21.059Z,101776.00
2023-03-02T08:22:49.944Z,101768.00
2023-03-02T08:25:20.379Z,101774.00
2023-03-02T08:27:48.443Z,101718.00
2023-03-02T08:30:16.672Z,101774.00
2023-03-02T08:32:44.898Z,101781.00
2023-03-02T08:35:13.077Z,101740.00
2023-03-02T08:37:41.058Z,101778.00
2023-03-02T08:40:10.213Z,101777.00
2023-03-02T08:42:39.868Z,101732.00
2023-03-02T08:45:09.135Z,101786.00
2023-03-02T08:47:37.208Z,101785.00
2023-03-02T08:50:08.438Z,101759.00
2023-03-02T08:52:36.428Z,101790.00
2023-03-02T08:55:04.743Z,101777.00
2023-03-02T08:57:32.864Z,101764.00
2023-03-02T09:00:02.520Z,101796.00
2023-03-02T09:02:30.606Z,101791.00
2023-03-02T09:04:58.836Z,101734.00
2023-03-02T09:07:27.082Z,101775.00
2023-03-02T09:09:55.039Z,101771.00
2023-03-02T09:12:23.315Z,101734.00
2023-03-02T09:14:51.402Z,101782.00
2023-03-02T09:17:20.896Z,101751.00
2023-03-02T09:19:49.956Z,101731.00
2023-03-02T09:22:18.669Z,101787.00
2023-03-02T09:24:46.640Z,101750.00
2023-03-02T09:27:14.609Z,101790.00
2023-03-02T09:29:44.263Z,101740.00
2023-03-02T09:32:14.718Z,101743.00
2023-03-02T09:34:44.646Z,101770.00
2023-03-02T09:37:12.845Z,101754.00
2023-03-02T09:39:50.351Z,101773.00
2023-03-02T09:42:44.589Z,101791.00
2023-03-02T09:45:26.950Z,101792.00
2023-03-02T09:48:08.438Z,101748.00
2023-03-02T09:50:41.235Z,101763.00
2023-03-02T09:53:36.164Z,101775.00
2023-03-02T09:56:04.929Z,101791.00
2023-03-02T09:58:37.465Z,101788.00
2023-03-02T10:01:12.018Z,101771.00
2023-03-02T10:03:48.708Z,101770.00
2023-03-02T10:06:18.452Z,101752.00
2023-03-02T10:08:46.730Z,101729.00
2023-03-02T10:11:20.478Z,101741.00
2023-03-02T10:13:52.807Z,101776.00
2023-03-02T10:16:29.804Z,101762.00
2023-03-02T10:19:07.816Z,101743.00
2023-03-02T10:21:40.816Z,101776.00
2023-03-02T10:24:26.253Z,101743.00
2023-03-02T10:26:59.179Z,101772.00
2023-03-02T10:29:51.948Z,101752.00
2023-03-02T10:32:23.154Z,101740.00
2023-03-02T10:34:56.272Z,101755.00
2023-03-02T10:37:31.085Z,101775.00
2023-03-02T10:39:59.138Z,101761.00
2023-03-02T10:42:32.229Z,101772.00
2023-03-02T10:45:10.036Z,101761.00
2023-03-02T10:47:38.517Z,101706.00
2023-03-02T10:50:23.678Z,101755.00
2023-03-02T10:53:00.268Z,101731.00
2023-03-02T10:55:29.406Z,101721.00
2023-03-02T10:58:09.000Z,101757.00
2023-03-02T11:00:41.895Z,101744.00
2023-03-02T11:03:23.451Z,101760.00
2023-03-02T11:05:53.756Z,101755.00
2023-03-02T11:08:24.728Z,101693.00
2023-03-02T11:10:59.983Z,101753.00
2023-03-02T11:13:31.857Z,101744.00
2023-03-02T11:16:01.213Z,101750.00
2023-03-02T11:18:38.395Z,101733.00
2023-03-02T11:21:12.171Z,101742.00
2023-03-02T11:23:53.056Z,101739.00
2023-03-02T11:26:27.205Z,101749.00
2023-03-02T11:29:04.211Z,101742.00
2023-03-02T11:31:39.463Z,101741.00
2023-03-02T11:34:24.355Z,101720.00
2023-03-02T11:37:02.486Z,101730.00
2023-03-02T11:39:53.323Z,101732.00
2023-03-02T11:42:28.153Z,101755.00
2023-03-02T11:44:56.639Z,101706.00
2023-03-02T11:47:25.080Z,101745.00
2023-03-02T11:49:56.768Z,101729.00
2023-03-02T11:52:27.584Z,101721.00
2023-03-02T11:55:01.310Z,101727.00
2023-03-02T11:57:34.483Z,101710.00
2023-03-02T12:00:04.592Z,101702.00
2023-03-02T12:02:32.552Z,101691.00
2023-03-02T12:05:06.881Z,101708.00
2023-03-02T12:07:34.868Z,101707.00
2023-03-02T12:10:08.024Z,101676.00
2023-03-02T12:12:48.146Z,101698.00
2023-03-02T12:15:30.216Z,101697.00
2023-03-02T12:17:59.524Z,101687.00
2023-03-02T12:20:29.839Z,101683.00
2023-03-02T12:23:09.103Z,101666.00
2023-03-02T12:25:51.553Z,101708.00
2023-03-02T12:28:33.743Z,101639.00
2023-03-02T12:31:12.400Z,101713.00
2023-03-02T12:33:44.966Z,101689.00
2023-03-02T12:36:16.297Z,101709.00
2023-03-02T12:38:50.454Z,101672.00
2023-03-02T12:41:49.963Z,101677.00
2023-03-02T12:44:39.200Z,101687.00
2023-03-02T12:47:16.085Z,101648.00
2023-03-02T12:49:50.262Z,101695.00
2023-03-02T12:52:24.135Z,101679.00
2023-03-02T12:55:01.685Z,101682.00
2023-03-02T12:57:31.794Z,101678.00
2023-03-02T13:00:02.016Z,101672.00
2023-03-02T13:02:31.439Z,101660.00
2023-03-02T13:05:01.918Z,101674.00
2023-03-02T13:07:36.187Z,101620.00
2023-03-02T13:10:09.647Z,101646.00
2023-03-02T13:12:46.404Z,101642.00
2023-03-02T13:15:17.862Z,101642.00
2023-03-02T13:17:54.580Z,101658.00
2023-03-02T13:20:28.057Z,101608.00
2023-03-02T13:22:57.138Z,101667.00
2023-03-02T13:25:28.419Z,101636.00
2023-03-02T13:28:00.822Z,101653.00
2023-03-02T13:30:31.725Z,101632.00
2023-03-02T13:33:04.814Z,101656.00
2023-03-02T13:35:34.779Z,101629.00
2023-03-02T13:38:04.914Z,101599.00
2023-03-02T13:40:42.216Z,101639.00
2023-03-02T13:43:34.774Z,101642.00
2023-03-02T13:46:05.074Z,101631.00
2023-03-02T13:48:34.571Z,101631.00
2023-03-02T13:51:05.357Z,101600.00
2023-03-02T13:53:38.133Z,101635.00
2023-03-02T13:56:06.534Z,101582.00
2023-03-02T13:58:39.535Z,101652.00
2023-03-02T14:01:08.628Z,101627.00
2023-03-02T14:03:37.736Z,101596.00
2023-03-02T14:06:10.144Z,101607.00
2023-03-02T14:08:41.946Z,101578.00
2023-03-02T14:11:13.131Z,101559.00
2023-03-02T14:13:46.575Z,101599.00
2023-03-02T14:16:16.010Z,101618.00
2023-03-02T14:18:46.661Z,101596.00
2023-03-02T14:21:16.386Z,101630.00
2023-03-02T14:23:44.845Z,101593.00
2023-03-02T14:26:33.920Z,101600.00
2023-03-02T14:29:12.279Z,101599.00
2023-03-02T14:31:40.742Z,101614.00
2023-03-02T14:34:13.345Z,101566.00
2023-03-02T14:36:42.850Z,101594.00
2023-03-02T14:39:21.596Z,101584.00
2023-03-02T14:41:53.757Z,101581.00
2023-03-02T14:44:33.667Z,101583.00
2023-03-02T14:47:07.852Z,101587.00
2023-03-02T14:49:36.094Z,101568.00
2023-03-02T14:52:07.719Z,101563.00
2023-03-02T14:54:42.377Z,101531.00
2023-03-02T14:57:18.792Z,101548.00
2023-03-02T14:59:49.706Z,101566.00
2023-03-02T15:02:26.077Z,101541.00
2023-03-02T15:04:57.372Z,101569.00
2023-03-02T15:07:27.502Z,101564.00
2023-03-02T15:09:58.193Z,101576.00
2023-03-02T15:12:26.921Z,101552.00
2023-03-02T15:14:56.889Z,101537.00
2023-03-02T15:17:27.509Z,101539.00
2023-03-02T15:20:00.006Z,101520.00
2023-03-02T15:22:29.930Z,101551.00
2023-03-02T15:24:58.425Z,101550.00
2023-03-02T15:27:26.982Z,101575.00
2023-03-02T15:29:58.536Z,101557.00
2023-03-02T15:32:27.053Z,101534.00
2023-03-02T15:34:55.312Z,101521.00
2023-03-02T15:37:24.189Z,101534.00
2023-03-02T15:40:39.094Z,101552.00
2023-03-02T15:43:27.350Z,101565.00
2023-03-02T15:46:00.536Z,101514.00
2023-03-02T15:48:29.569Z,101553.00
2023-03-02T15:51:03.760Z,101529.00
2023-03-02T15:53:32.866Z,101542.00
2023-03-02T15:56:07.257Z,101543.00
2023-03-02T15:58:40.388Z,101524.00
2023-03-02T16:01:19.867Z,101559.00
2023-03-02T16:03:49.439Z,101503.00
2023-03-02T16:06:18.818Z,101528.00
2023-03-02T16:08:47.130Z,101561.00
2023-03-02T16:11:18.856Z,101556.00
2023-03-02T16:13:47.097Z,101549.00
2023-03-02T16:16:17.172Z,101564.00
2023-03-02T16:18:45.601Z,101499.00
2023-03-02T16:21:14.353Z,101521.00
2023-03-02T16:23:45.608Z,101532.00
2023-03-02T16:26:19.215Z,101533.00
2023-03-02T16:28:47.994Z,101503.00
2023-03-02T16:31:28.898Z,101565.00
2023-03-02T16:33:59.173Z,101554.00
2023-03-02T16:36:28.230Z,101559.00
2023-03-02T16:38:56.799Z,101557.00
2023-03-02T16:41:28.404Z,101570.00
2023-03-02T16:43:59.661Z,101532.00
2023-03-02T16:46:32.869Z,101539.00
2023-03-02T16:49:05.409Z,101572.00
2023-03-02T16:51:34.381Z,101558.00
2023-03-02T16:54:03.253Z,101577.00
2023-03-02T16:56:31.759Z,101552.00
2023-03-02T16:59:00.984Z,101572.00
2023-03-02T17:01:30.872Z,101542.00
2023-03-02T17:03:59.609Z,101581.00
2023-03-02T17:06:28.462Z,101580.00
2023-03-02T17:08:56.787Z,101592.00
2023-03-02T17:11:25.195Z,101544.00
2023-03-02T17:13:54.194Z,101551.00
2023-03-02T17:16:23.054Z,101590.00
2023-03-02T17:18:52.736Z,101602.00
2023-03-02T17:21:21.016Z,101553.00
2023-03-02T17:23:50.285Z,101581.00
2023-03-02T17:26:26.578Z,101613.00
2023-03-02T17:28:57.842Z,101582.00
2023-03-02T17:31:26.247Z,101616.00
2023-03-02T17:33:56.341Z,101615.00
2023-03-02T17:36:24.351Z,101602.00
2023-03-02T17:38:53.307Z,101602.00
2023-03-02T17:41:21.264Z,101596.00
2023-03-02T17:43:49.300Z,101548.00
2023-03-02T17:46:20.620Z,101596.00
2023-03-02T17:48:53.752Z,101606.00
2023-03-02T17:51:25.586Z,101553.00
2023-03-02T17:53:55.318Z,101583.00
2023-03-02T17:56:25.130Z,101604.00
2023-03-02T17:58:54.493Z,101592.00
2023-03-02T18:01:22.609Z,101630.00
2023-03-02T18:03:50.555Z,101589.00
2023-03-02T18:06:20.729Z,101612.00
2023-03-02T18:08:52.319Z,101582.00
2023-03-02T18:11:22.590Z,101601.00
2023-03-02T18:13:50.785Z,101612.00
2023-03-02T18:16:19.192Z,101615.00
2023-03-02T18:18:47.133Z,101607.00
2023-03-02T18:21:15.031Z,101565.00
2023-03-02T18:23:44.805Z,101627.00
2023-03-02T18:26:14.662Z,101581.00
2023-03-02T18:28:42.827Z,101629.00
2023-03-02T18:31:13.853Z,101608.00
2023-03-02T18:33:42.172Z,101601.00
2023-03-02T18:36:11.194Z,101620.00
2023-03-02T18:38:39.817Z,101646.00
2023-03-02T18:41:08.972Z,101616.00
2023-03-02T18:43:40.394Z,101583.00
2023-03-02T18:46:10.469Z,101643.00
2023-03-02T18:48:39.567Z,101630.00
2023-03-02T18:51:07.421Z,101619.00
2023-03-02T18:53:35.317Z,101599.00
2023-03-02T18:56:03.449Z,101604.00
2023-03-02T18:58:34.159Z,101608.00
2023-03-02T19:01:03.821Z,101606.00
2023-03-02T19:03:32.673Z,101629.00
2023-03-02T19:06:01.497Z,101644.00
2023-03-02T19:08:29.644Z,101622.00
2023-03-02T19:10:58.151Z,101624.00
2023-03-02T19:13:26.100Z,101613.00
2023-03-02T19:15:55.036Z,101569.00
2023-03-02T19:18:26.430Z,101635.00
2023-03-02T19:20:55.803Z,101616.00
2023-03-02T19:23:23.790Z,101618.00
2023-03-02T19:25:52.682Z,101654.00
2023-03-02T19:28:21.627Z,101641.00
2023-03-02T19:30:49.735Z,101630.00
2023-03-02T19:33:18.552Z,101642.00
2023-03-02T19:35:47.970Z,101629.00
2023-03-02T19:38:16.659Z,101644.00
2023-03-02T19:40:44.620Z,101634.00
2023-03-02T19:43:12.809Z,101656.00
2023-03-02T19:45:40.896Z,101572.00
2023-03-02T19:48:11.346Z,101636.00
2023-03-02T19:50:39.388Z,101641.00
2023-03-02T19:53:09.960Z,101588.00
2023-03-02T19:55:38.118Z,101647.00
2023-03-02T19:58:08.095Z,101642.00
2023-03-02T20:00:36.350Z,101645.00
2023-03-02T20:03:06.105Z,101650.00
2023-03-02T20:05:34.233Z,101613.00
2023-03-02T20:08:02.622Z,101642.00
2023-03-02T20:10:36.760Z,101640.00
2023-03-02T20:13:06.557Z,101661.00
2023-03-02T20:15:38.181Z,101629.00
2023-03-02T20:18:07.412Z,101646.00
2023-03-02T20:20:35.836Z,101650.00
2023-03-02T20:23:04.755Z,101659.00
2023-03-02T20:25:35.067Z,101627.00
2023-03-02T20:28:05.712Z,101608.00
2023-03-02T20:30:37.305Z,101618.00
2023-03-02T20:33:07.218Z,101597.00
2023-03-02T20:35:40.910Z,101655.00
2023-03-02T20:38:12.402Z,101618.00
2023-03-02T20:40:42.055Z,101625.00
2023-03-02T20:43:10.663Z,101664.00
2023-03-02T20:45:39.747Z,101606.00
2023-03-02T20:48:08.709Z,101677.00
2023-03-02T20:50:37.645Z,101649.00
2023-03-02T20:53:08.991Z,101655.00
2023-03-02T20:55:37.516Z,101693.00
2023-03-02T20:58:07.025Z,101685.00
2023-03-02T21:00:40.214Z,101636.00
2023-03-02T21:03:09.673Z,101635.00
2023-03-02T21:05:40.222Z,101668.00
2023-03-02T21:08:09.336Z,101670.00
2023-03-02T21:10:39.431Z,101647.00
2023-03-02T21:13:09.550Z,101667.00
2023-03-02T21:16:14.619Z,101651.00
2023-03-02T21:18:46.027Z,101627.00
2023-03-02T21:21:14.300Z,101662.00
2023-03-02T21:23:42.664Z,101637.00
2023-03-02T21:26:12.464Z,101671.00
2023-03-02T21:28:44.124Z,101633.00
2023-03-02T21:31:12.375Z,101648.00
2023-03-02T21:33:40.297Z,101631.00
2023-03-02T21:36:09.269Z,101628.00
2023-03-02T21:38:37.098Z,101648.00
2023-03-02T21:41:05.038Z,101632.00
2023-03-02T21:43:33.302Z,101651.00
2023-03-02T21:46:02.659Z,101644.00
2023-03-02T21:48:30.586Z,101657.00
2023-03-02T21:51:07.455Z,101651.00
2023-03-02T21:53:38.371Z,101587.00
2023-03-02T21:56:07.808Z,101666.00
2023-03-02T21:58:35.986Z,101659.00
2023-03-02T22:01:05.588Z,101645.00
2023-03-02T22:03:33.384Z,101679.00
2023-03-02T22:06:01.267Z,101650.00
2023-03-02T22:08:29.161Z,101662.00
2023-03-02T22:10:56.957Z,101658.00
2023-03-02T22:13:26.628Z,101661.00
2023-03-02T22:16:04.304Z,101652.00
2023-03-02T22:18:33.618Z,101666.00
2023-03-02T22:21:02.442Z,101647.00
2023-03-02T22:23:30.210Z,101654.00
2023-03-02T22:26:11.831Z,101632.00
2023-03-02T22:28:41.043Z,101617.00
2023-03-02T22:31:18.626Z,101635.00
2023-03-02T22:33:48.207Z,101655.00
2023-03-02T22:36:19.918Z,101637.00
2023-03-02T22:38:47.812Z,101647.00
2023-03-02T22:41:18.313Z,101656.00
2023-03-02T22:43:47.056Z,101595.00
2023-03-02T22:46:18.660Z,101643.00
2023-03-02T22:48:49.981Z,101602.00
2023-03-02T22:51:20.140Z,101640.00
2023-03-02T22:53:50.202Z,101644.00
2023-03-02T22:56:28.630Z,101650.00
2023-03-02T22:58:57.734Z,101653.00
2023-03-02T23:01:28.563Z,101651.00
2023-03-02T23:04:02.540Z,101602.00
2023-03-02T23:06:32.602Z,101646.00
2023-03-02T23:09:03.031Z,101650.00
2023-03-02T23:11:33.836Z,101641.00
2023-03-02T23:14:03.399Z,101606.00
2023-03-02T23:16:36.901Z,101634.00
2023-03-02T23:19:06.279Z,101631.00
2023-03-02T23:21:39.400Z,101614.00
2023-03-02T23:24:08.745Z,101641.00
2023-03-02T23:26:37.263Z,101655.00
2023-03-02T23:29:05.917Z,101625.00
2023-03-02T23:31:33.930Z,101626.00
2023-03-02T23:34:01.967Z,101639.00
2023-03-02T23:36:32.024Z,101633.00
2023-03-02T23:38:59.920Z,101629.00
2023-03-02T23:41:27.857Z,101631.00
2023-03-02T23:43:55.802Z,101618.00
2023-03-02T23:46:23.651Z,101562.00
2023-03-02T23:48:51.738Z,101625.00
2023-03-02T23:51:20.722Z,101567.00
2023-03-02T23:53:49.920Z,101613.00
2023-03-02T23:56:17.706Z,101584.00
2023-03-02T23:58:45.433Z,101590.00
